sensor_id;sensor_type;location;lat;lon;timestamp;P1;durP1;ratioP1;P2;durP2;ratioP2
18780;SDS011;9519;51.890;8.970;2022-12-29T00:02:52;2.40;;;1.00;;
18780;SDS011;9519;51.890;8.970;2022-12-29T00:07:54;2.53;;;1.20;;
18780;SDS011;9519;51.890;8.970;2022-12-29T00:12:58;2.90;;;1.23;;
18780;SDS011;9519;51.890;8.970;2022-12-29T00:18:17;2.77;;;1.20;;
18780;SDS011;9519;51.890;8.970;2022-12-29T00:23:20;1.63;;;1.07;;
18780;SDS011;9519;51.890;8.970;2022-12-29T00:28:41;1.60;;;1.00;;
18780;SDS011;9519;51.890;8.970;2022-12-29T00:34:01;2.53;;;1.20;;
18780;SDS011;9519;51.890;8.970;2022-12-29T00:39:20;3.30;;;1.60;;
18780;SDS011;9519;51.890;8.970;2022-12-29T00:44:56;1.33;;;0.90;;
18780;SDS011;9519;51.890;8.970;2022-12-29T00:49:58;1.50;;;1.07;;
18780;SDS011;9519;51.890;8.970;2022-12-29T00:55:00;2.10;;;1.10;;
18780;SDS011;9519;51.890;8.970;2022-12-29T01:00:04;1.57;;;1.13;;
18780;SDS011;9519;51.890;8.970;2022-12-29T01:05:08;2.33;;;1.07;;
18780;SDS011;9519;51.890;8.970;2022-12-29T01:10:10;2.67;;;1.07;;
18780;SDS011;9519;51.890;8.970;2022-12-29T01:15:13;2.53;;;1.20;;
18780;SDS011;9519;51.890;8.970;2022-12-29T01:20:16;2.00;;;1.00;;
18780;SDS011;9519;51.890;8.970;2022-12-29T01:25:19;3.67;;;0.80;;
18780;SDS011;9519;51.890;8.970;2022-12-29T01:30:23;1.37;;;0.77;;
18780;SDS011;9519;51.890;8.970;2022-12-29T01:35:25;1.40;;;0.80;;
18780;SDS011;9519;51.890;8.970;2022-12-29T01:40:27;1.00;;;0.80;;
18780;SDS011;9519;51.890;8.970;2022-12-29T01:45:31;1.63;;;0.80;;
18780;SDS011;9519;51.890;8.970;2022-12-29T01:50:33;1.23;;;0.73;;
18780;SDS011;9519;51.890;8.970;2022-12-29T01:55:42;1.13;;;0.90;;
18780;SDS011;9519;51.890;8.970;2022-12-29T02:00:50;1.87;;;1.10;;
18780;SDS011;9519;51.890;8.970;2022-12-29T02:05:54;2.90;;;0.90;;
18780;SDS011;9519;51.890;8.970;2022-12-29T02:11:02;1.93;;;0.83;;
18780;SDS011;9519;51.890;8.970;2022-12-29T02:16:09;1.40;;;0.70;;
18780;SDS011;9519;51.890;8.970;2022-12-29T02:21:49;1.80;;;0.80;;
18780;SDS011;9519;51.890;8.970;2022-12-29T02:27:24;1.00;;;0.70;;
18780;SDS011;9519;51.890;8.970;2022-12-29T02:32:54;1.33;;;0.80;;
18780;SDS011;9519;51.890;8.970;2022-12-29T02:38:12;0.67;;;0.53;;
18780;SDS011;9519;51.890;8.970;2022-12-29T02:43:26;0.50;;;0.50;;
18780;SDS011;9519;51.890;8.970;2022-12-29T02:48:42;1.07;;;0.70;;
18780;SDS011;9519;51.890;8.970;2022-12-29T02:53:52;4.03;;;0.60;;
18780;SDS011;9519;51.890;8.970;2022-12-29T02:59:14;1.10;;;0.80;;
18780;SDS011;9519;51.890;8.970;2022-12-29T03:04:21;3.60;;;0.60;;
18780;SDS011;9519;51.890;8.970;2022-12-29T03:09:36;2.70;;;0.67;;
18780;SDS011;9519;51.890;8.970;2022-12-29T03:14:52;0.77;;;0.60;;
18780;SDS011;9519;51.890;8.970;2022-12-29T03:20:23;1.03;;;0.50;;
18780;SDS011;9519;51.890;8.970;2022-12-29T03:25:33;0.63;;;0.53;;
18780;SDS011;9519;51.890;8.970;2022-12-29T03:30:41;1.30;;;0.60;;
18780;SDS011;9519;51.890;8.970;2022-12-29T03:35:46;1.10;;;0.70;;
18780;SDS011;9519;51.890;8.970;2022-12-29T03:40:55;1.27;;;0.53;;
18780;SDS011;9519;51.890;8.970;2022-12-29T03:46:01;0.90;;;0.63;;
18780;SDS011;9519;51.890;8.970;2022-12-29T03:51:04;1.83;;;0.83;;
18780;SDS011;9519;51.890;8.970;2022-12-29T03:56:06;0.93;;;0.60;;
18780;SDS011;9519;51.890;8.970;2022-12-29T04:01:08;0.57;;;0.57;;
18780;SDS011;9519;51.890;8.970;2022-12-29T04:06:12;1.40;;;0.70;;
18780;SDS011;9519;51.890;8.970;2022-12-29T04:11:14;0.93;;;0.70;;
18780;SDS011;9519;51.890;8.970;2022-12-29T04:16:16;0.67;;;0.60;;
18780;SDS011;9519;51.890;8.970;2022-12-29T04:21:19;1.23;;;0.60;;
18780;SDS011;9519;51.890;8.970;2022-12-29T04:26:21;2.77;;;1.00;;
18780;SDS011;9519;51.890;8.970;2022-12-29T04:31:23;1.33;;;0.60;;
18780;SDS011;9519;51.890;8.970;2022-12-29T04:36:27;1.20;;;0.70;;
18780;SDS011;9519;51.890;8.970;2022-12-29T04:41:29;2.53;;;0.70;;
18780;SDS011;9519;51.890;8.970;2022-12-29T04:46:31;0.80;;;0.70;;
18780;SDS011;9519;51.890;8.970;2022-12-29T04:51:34;2.30;;;0.80;;
18780;SDS011;9519;51.890;8.970;2022-12-29T04:56:36;0.77;;;0.50;;
18780;SDS011;9519;51.890;8.970;2022-12-29T05:01:38;3.00;;;0.90;;
18780;SDS011;9519;51.890;8.970;2022-12-29T05:06:41;1.17;;;0.50;;
18780;SDS011;9519;51.890;8.970;2022-12-29T05:11:43;1.33;;;0.60;;
18780;SDS011;9519;51.890;8.970;2022-12-29T05:16:45;0.80;;;0.60;;
18780;SDS011;9519;51.890;8.970;2022-12-29T05:21:49;1.37;;;0.60;;
18780;SDS011;9519;51.890;8.970;2022-12-29T05:26:51;2.07;;;0.60;;
18780;SDS011;9519;51.890;8.970;2022-12-29T05:31:53;1.67;;;0.70;;
18780;SDS011;9519;51.890;8.970;2022-12-29T05:36:57;1.27;;;0.60;;
18780;SDS011;9519;51.890;8.970;2022-12-29T05:41:59;1.13;;;0.60;;
18780;SDS011;9519;51.890;8.970;2022-12-29T05:47:01;1.27;;;0.53;;
18780;SDS011;9519;51.890;8.970;2022-12-29T05:52:04;0.60;;;0.50;;
18780;SDS011;9519;51.890;8.970;2022-12-29T05:57:06;0.80;;;0.50;;
18780;SDS011;9519;51.890;8.970;2022-12-29T06:02:11;1.17;;;0.50;;
18780;SDS011;9519;51.890;8.970;2022-12-29T06:07:16;0.50;;;0.50;;
18780;SDS011;9519;51.890;8.970;2022-12-29T06:12:18;2.63;;;0.70;;
18780;SDS011;9519;51.890;8.970;2022-12-29T06:17:20;0.70;;;0.60;;
18780;SDS011;9519;51.890;8.970;2022-12-29T06:22:23;0.80;;;0.50;;
18780;SDS011;9519;51.890;8.970;2022-12-29T06:27:25;1.37;;;0.80;;
18780;SDS011;9519;51.890;8.970;2022-12-29T06:32:28;2.47;;;0.93;;
18780;SDS011;9519;51.890;8.970;2022-12-29T06:37:31;1.50;;;0.70;;
18780;SDS011;9519;51.890;8.970;2022-12-29T06:42:33;3.47;;;0.70;;
18780;SDS011;9519;51.890;8.970;2022-12-29T06:47:35;0.70;;;0.50;;
18780;SDS011;9519;51.890;8.970;2022-12-29T06:52:39;3.73;;;0.80;;
18780;SDS011;9519;51.890;8.970;2022-12-29T06:57:41;3.37;;;0.97;;
18780;SDS011;9519;51.890;8.970;2022-12-29T07:02:43;1.83;;;0.80;;
18780;SDS011;9519;51.890;8.970;2022-12-29T07:07:47;1.33;;;0.80;;
18780;SDS011;9519;51.890;8.970;2022-12-29T07:12:49;2.53;;;0.70;;
18780;SDS011;9519;51.890;8.970;2022-12-29T07:17:51;1.00;;;0.70;;
18780;SDS011;9519;51.890;8.970;2022-12-29T07:22:55;2.37;;;0.70;;
18780;SDS011;9519;51.890;8.970;2022-12-29T07:27:57;1.77;;;0.70;;
18780;SDS011;9519;51.890;8.970;2022-12-29T07:32:59;1.57;;;0.67;;
18780;SDS011;9519;51.890;8.970;2022-12-29T07:38:02;5.13;;;0.70;;
18780;SDS011;9519;51.890;8.970;2022-12-29T07:43:04;2.50;;;0.70;;
18780;SDS011;9519;51.890;8.970;2022-12-29T07:48:09;0.90;;;0.70;;
18780;SDS011;9519;51.890;8.970;2022-12-29T07:53:12;1.30;;;0.70;;
18780;SDS011;9519;51.890;8.970;2022-12-29T07:58:14;4.63;;;0.90;;
18780;SDS011;9519;51.890;8.970;2022-12-29T08:03:16;1.23;;;0.70;;
18780;SDS011;9519;51.890;8.970;2022-12-29T08:08:20;3.83;;;0.70;;
18780;SDS011;9519;51.890;8.970;2022-12-29T08:13:22;2.97;;;1.27;;
18780;SDS011;9519;51.890;8.970;2022-12-29T08:18:24;2.07;;;0.60;;
18780;SDS011;9519;51.890;8.970;2022-12-29T08:23:27;4.77;;;1.07;;
18780;SDS011;9519;51.890;8.970;2022-12-29T08:28:29;4.73;;;1.67;;
18780;SDS011;9519;51.890;8.970;2022-12-29T08:33:32;3.50;;;1.37;;
18780;SDS011;9519;51.890;8.970;2022-12-29T08:38:35;6.47;;;2.77;;
18780;SDS011;9519;51.890;8.970;2022-12-29T08:43:37;5.50;;;2.23;;
18780;SDS011;9519;51.890;8.970;2022-12-29T08:48:39;2.90;;;1.03;;
18780;SDS011;9519;51.890;8.970;2022-12-29T08:53:43;3.43;;;1.27;;
18780;SDS011;9519;51.890;8.970;2022-12-29T08:58:45;1.73;;;0.70;;
18780;SDS011;9519;51.890;8.970;2022-12-29T09:03:47;15.00;;;9.80;;
18780;SDS011;9519;51.890;8.970;2022-12-29T09:08:51;5.33;;;2.00;;
18780;SDS011;9519;51.890;8.970;2022-12-29T09:13:55;9.73;;;1.97;;
18780;SDS011;9519;51.890;8.970;2022-12-29T09:18:57;4.13;;;1.83;;
18780;SDS011;9519;51.890;8.970;2022-12-29T09:24:00;3.50;;;1.53;;
18780;SDS011;9519;51.890;8.970;2022-12-29T09:29:03;4.60;;;1.50;;
18780;SDS011;9519;51.890;8.970;2022-12-29T09:34:05;3.87;;;1.50;;
18780;SDS011;9519;51.890;8.970;2022-12-29T09:39:08;3.57;;;1.20;;
18780;SDS011;9519;51.890;8.970;2022-12-29T09:44:13;2.97;;;1.20;;
18780;SDS011;9519;51.890;8.970;2022-12-29T09:49:25;4.17;;;0.97;;
18780;SDS011;9519;51.890;8.970;2022-12-29T09:54:40;4.27;;;1.40;;
18780;SDS011;9519;51.890;8.970;2022-12-29T09:59:53;6.27;;;1.23;;
18780;SDS011;9519;51.890;8.970;2022-12-29T10:05:00;2.23;;;0.90;;
18780;SDS011;9519;51.890;8.970;2022-12-29T10:10:09;4.57;;;1.50;;
18780;SDS011;9519;51.890;8.970;2022-12-29T10:15:29;7.23;;;1.47;;
18780;SDS011;9519;51.890;8.970;2022-12-29T10:20:46;5.87;;;1.83;;
18780;SDS011;9519;51.890;8.970;2022-12-29T10:25:57;7.60;;;1.20;;
18780;SDS011;9519;51.890;8.970;2022-12-29T10:31:03;6.73;;;1.80;;
18780;SDS011;9519;51.890;8.970;2022-12-29T10:36:14;6.33;;;1.70;;
18780;SDS011;9519;51.890;8.970;2022-12-29T10:41:24;8.33;;;2.80;;
18780;SDS011;9519;51.890;8.970;2022-12-29T10:46:34;9.53;;;3.07;;
18780;SDS011;9519;51.890;8.970;2022-12-29T10:51:39;8.33;;;3.50;;
18780;SDS011;9519;51.890;8.970;2022-12-29T10:56:47;7.60;;;1.67;;
18780;SDS011;9519;51.890;8.970;2022-12-29T11:01:57;4.43;;;2.33;;
18780;SDS011;9519;51.890;8.970;2022-12-29T11:07:15;5.23;;;1.80;;
18780;SDS011;9519;51.890;8.970;2022-12-29T11:12:23;13.80;;;6.83;;
18780;SDS011;9519;51.890;8.970;2022-12-29T11:17:27;9.13;;;3.13;;
18780;SDS011;9519;51.890;8.970;2022-12-29T11:22:29;8.10;;;1.73;;
18780;SDS011;9519;51.890;8.970;2022-12-29T11:27:33;9.50;;;2.17;;
18780;SDS011;9519;51.890;8.970;2022-12-29T11:32:35;11.23;;;4.10;;
18780;SDS011;9519;51.890;8.970;2022-12-29T11:37:53;6.30;;;1.93;;
18780;SDS011;9519;51.890;8.970;2022-12-29T11:43:01;9.77;;;4.13;;
18780;SDS011;9519;51.890;8.970;2022-12-29T11:48:06;4.77;;;1.83;;
18780;SDS011;9519;51.890;8.970;2022-12-29T11:53:16;8.33;;;3.17;;
18780;SDS011;9519;51.890;8.970;2022-12-29T11:58:29;5.87;;;1.87;;
18780;SDS011;9519;51.890;8.970;2022-12-29T12:03:34;4.70;;;1.80;;
18780;SDS011;9519;51.890;8.970;2022-12-29T12:08:46;7.20;;;2.00;;
18780;SDS011;9519;51.890;8.970;2022-12-29T12:13:57;10.13;;;3.43;;
18780;SDS011;9519;51.890;8.970;2022-12-29T12:19:04;8.67;;;2.23;;
18780;SDS011;9519;51.890;8.970;2022-12-29T12:24:30;9.10;;;1.50;;
18780;SDS011;9519;51.890;8.970;2022-12-29T12:29:46;7.53;;;2.43;;
18780;SDS011;9519;51.890;8.970;2022-12-29T12:34:59;8.47;;;2.07;;
18780;SDS011;9519;51.890;8.970;2022-12-29T12:40:06;14.77;;;6.67;;
18780;SDS011;9519;51.890;8.970;2022-12-29T12:45:34;7.10;;;2.00;;
18780;SDS011;9519;51.890;8.970;2022-12-29T12:50:58;7.57;;;2.83;;
18780;SDS011;9519;51.890;8.970;2022-12-29T12:56:19;15.87;;;7.73;;
18780;SDS011;9519;51.890;8.970;2022-12-29T13:01:45;11.67;;;4.40;;
18780;SDS011;9519;51.890;8.970;2022-12-29T13:06:59;7.27;;;2.60;;
18780;SDS011;9519;51.890;8.970;2022-12-29T13:12:18;10.53;;;3.03;;
18780;SDS011;9519;51.890;8.970;2022-12-29T13:17:38;12.00;;;4.47;;
18780;SDS011;9519;51.890;8.970;2022-12-29T13:22:52;10.60;;;4.10;;
18780;SDS011;9519;51.890;8.970;2022-12-29T13:28:04;6.30;;;1.80;;
18780;SDS011;9519;51.890;8.970;2022-12-29T13:33:21;7.47;;;1.90;;
18780;SDS011;9519;51.890;8.970;2022-12-29T13:38:38;7.73;;;2.07;;
18780;SDS011;9519;51.890;8.970;2022-12-29T13:43:47;8.40;;;2.20;;
18780;SDS011;9519;51.890;8.970;2022-12-29T13:48:54;11.23;;;2.97;;
18780;SDS011;9519;51.890;8.970;2022-12-29T13:54:09;7.87;;;2.60;;
18780;SDS011;9519;51.890;8.970;2022-12-29T13:59:27;9.53;;;2.20;;
18780;SDS011;9519;51.890;8.970;2022-12-29T14:04:56;10.23;;;2.17;;
18780;SDS011;9519;51.890;8.970;2022-12-29T14:10:02;10.37;;;1.90;;
18780;SDS011;9519;51.890;8.970;2022-12-29T14:15:06;9.37;;;3.00;;
18780;SDS011;9519;51.890;8.970;2022-12-29T14:20:26;11.87;;;2.77;;
18780;SDS011;9519;51.890;8.970;2022-12-29T14:30:59;14.47;;;7.37;;
18780;SDS011;9519;51.890;8.970;2022-12-29T14:41:29;39.70;;;16.83;;
18780;SDS011;9519;51.890;8.970;2022-12-29T14:52:11;17.10;;;6.13;;
18780;SDS011;9519;51.890;8.970;2022-12-29T14:57:30;11.20;;;4.53;;
18780;SDS011;9519;51.890;8.970;2022-12-29T15:02:38;10.77;;;3.03;;
18780;SDS011;9519;51.890;8.970;2022-12-29T15:07:46;8.37;;;2.83;;
18780;SDS011;9519;51.890;8.970;2022-12-29T15:12:51;9.17;;;3.37;;
18780;SDS011;9519;51.890;8.970;2022-12-29T15:17:55;7.53;;;3.33;;
18780;SDS011;9519;51.890;8.970;2022-12-29T15:23:00;8.83;;;2.10;;
18780;SDS011;9519;51.890;8.970;2022-12-29T15:28:10;10.37;;;4.17;;
18780;SDS011;9519;51.890;8.970;2022-12-29T15:33:17;8.70;;;2.20;;
18780;SDS011;9519;51.890;8.970;2022-12-29T15:38:24;11.67;;;1.73;;
18780;SDS011;9519;51.890;8.970;2022-12-29T15:43:32;8.43;;;2.17;;
18780;SDS011;9519;51.890;8.970;2022-12-29T15:48:50;6.73;;;1.57;;
18780;SDS011;9519;51.890;8.970;2022-12-29T15:53:54;8.97;;;3.40;;
18780;SDS011;9519;51.890;8.970;2022-12-29T15:58:56;11.53;;;4.30;;
18780;SDS011;9519;51.890;8.970;2022-12-29T16:04:00;12.17;;;4.90;;
18780;SDS011;9519;51.890;8.970;2022-12-29T16:09:16;13.53;;;4.97;;
18780;SDS011;9519;51.890;8.970;2022-12-29T16:14:30;10.50;;;2.60;;
18780;SDS011;9519;51.890;8.970;2022-12-29T16:19:38;9.97;;;3.03;;
18780;SDS011;9519;51.890;8.970;2022-12-29T16:24:45;21.70;;;12.17;;
18780;SDS011;9519;51.890;8.970;2022-12-29T16:29:48;9.37;;;2.20;;
18780;SDS011;9519;51.890;8.970;2022-12-29T16:35:02;7.37;;;1.63;;
18780;SDS011;9519;51.890;8.970;2022-12-29T16:40:24;13.23;;;2.63;;
18780;SDS011;9519;51.890;8.970;2022-12-29T16:51:29;11.20;;;2.57;;
18780;SDS011;9519;51.890;8.970;2022-12-29T16:56:35;5.67;;;2.17;;
18780;SDS011;9519;51.890;8.970;2022-12-29T17:01:44;9.33;;;1.70;;
18780;SDS011;9519;51.890;8.970;2022-12-29T17:06:46;7.30;;;1.80;;
18780;SDS011;9519;51.890;8.970;2022-12-29T17:11:50;8.93;;;1.67;;
18780;SDS011;9519;51.890;8.970;2022-12-29T17:16:55;7.13;;;1.63;;
18780;SDS011;9519;51.890;8.970;2022-12-29T17:21:57;6.50;;;2.50;;
18780;SDS011;9519;51.890;8.970;2022-12-29T17:27:02;5.43;;;1.90;;
18780;SDS011;9519;51.890;8.970;2022-12-29T17:32:06;13.43;;;6.13;;
18780;SDS011;9519;51.890;8.970;2022-12-29T17:37:20;10.93;;;3.60;;
18780;SDS011;9519;51.890;8.970;2022-12-29T17:42:39;9.00;;;3.70;;
18780;SDS011;9519;51.890;8.970;2022-12-29T17:47:44;7.57;;;3.80;;
18780;SDS011;9519;51.890;8.970;2022-12-29T17:52:49;5.60;;;1.90;;
18780;SDS011;9519;51.890;8.970;2022-12-29T17:57:56;8.13;;;1.97;;
18780;SDS011;9519;51.890;8.970;2022-12-29T18:02:58;5.17;;;1.67;;
18780;SDS011;9519;51.890;8.970;2022-12-29T18:08:00;5.53;;;1.90;;
18780;SDS011;9519;51.890;8.970;2022-12-29T18:13:03;5.13;;;2.20;;
18780;SDS011;9519;51.890;8.970;2022-12-29T18:18:08;7.77;;;2.33;;
18780;SDS011;9519;51.890;8.970;2022-12-29T18:23:16;13.40;;;3.60;;
18780;SDS011;9519;51.890;8.970;2022-12-29T18:28:23;9.50;;;2.07;;
18780;SDS011;9519;51.890;8.970;2022-12-29T18:33:26;7.17;;;2.00;;
18780;SDS011;9519;51.890;8.970;2022-12-29T18:38:30;5.70;;;1.63;;
18780;SDS011;9519;51.890;8.970;2022-12-29T18:43:33;6.50;;;1.47;;
18780;SDS011;9519;51.890;8.970;2022-12-29T18:48:35;6.10;;;1.60;;
18780;SDS011;9519;51.890;8.970;2022-12-29T18:53:38;6.90;;;2.10;;
18780;SDS011;9519;51.890;8.970;2022-12-29T18:58:41;9.03;;;2.87;;
18780;SDS011;9519;51.890;8.970;2022-12-29T19:03:43;7.93;;;2.13;;
18780;SDS011;9519;51.890;8.970;2022-12-29T19:08:45;10.40;;;3.43;;
18780;SDS011;9519;51.890;8.970;2022-12-29T19:13:49;7.07;;;2.23;;
18780;SDS011;9519;51.890;8.970;2022-12-29T19:18:51;9.43;;;2.50;;
18780;SDS011;9519;51.890;8.970;2022-12-29T19:23:54;4.17;;;1.53;;
18780;SDS011;9519;51.890;8.970;2022-12-29T19:28:58;4.97;;;1.40;;
18780;SDS011;9519;51.890;8.970;2022-12-29T19:34:00;5.07;;;1.40;;
18780;SDS011;9519;51.890;8.970;2022-12-29T19:39:03;11.97;;;3.03;;
18780;SDS011;9519;51.890;8.970;2022-12-29T19:44:06;6.33;;;2.03;;
18780;SDS011;9519;51.890;8.970;2022-12-29T19:49:08;6.10;;;1.53;;
18780;SDS011;9519;51.890;8.970;2022-12-29T19:54:11;5.53;;;1.73;;
18780;SDS011;9519;51.890;8.970;2022-12-29T19:59:14;9.17;;;2.43;;
18780;SDS011;9519;51.890;8.970;2022-12-29T20:04:16;7.77;;;2.00;;
18780;SDS011;9519;51.890;8.970;2022-12-29T20:09:18;9.30;;;1.80;;
18780;SDS011;9519;51.890;8.970;2022-12-29T20:14:28;5.70;;;1.90;;
18780;SDS011;9519;51.890;8.970;2022-12-29T20:19:30;7.93;;;2.40;;
18780;SDS011;9519;51.890;8.970;2022-12-29T20:24:34;9.63;;;2.73;;
18780;SDS011;9519;51.890;8.970;2022-12-29T20:29:40;8.83;;;3.17;;
18780;SDS011;9519;51.890;8.970;2022-12-29T20:34:45;8.90;;;2.70;;
18780;SDS011;9519;51.890;8.970;2022-12-29T20:39:48;8.80;;;3.00;;
18780;SDS011;9519;51.890;8.970;2022-12-29T20:44:51;13.77;;;3.30;;
18780;SDS011;9519;51.890;8.970;2022-12-29T20:49:53;13.27;;;2.67;;
18780;SDS011;9519;51.890;8.970;2022-12-29T20:54:55;11.57;;;2.50;;
18780;SDS011;9519;51.890;8.970;2022-12-29T20:59:59;11.33;;;2.43;;
18780;SDS011;9519;51.890;8.970;2022-12-29T21:05:01;15.17;;;3.27;;
18780;SDS011;9519;51.890;8.970;2022-12-29T21:10:03;17.07;;;3.90;;
18780;SDS011;9519;51.890;8.970;2022-12-29T21:15:09;13.17;;;3.30;;
18780;SDS011;9519;51.890;8.970;2022-12-29T21:20:13;13.50;;;3.40;;
18780;SDS011;9519;51.890;8.970;2022-12-29T21:25:29;21.70;;;3.63;;
18780;SDS011;9519;51.890;8.970;2022-12-29T21:30:38;16.77;;;3.50;;
18780;SDS011;9519;51.890;8.970;2022-12-29T21:35:41;19.43;;;3.20;;
18780;SDS011;9519;51.890;8.970;2022-12-29T21:40:43;14.40;;;3.40;;
18780;SDS011;9519;51.890;8.970;2022-12-29T21:45:49;17.57;;;3.70;;
18780;SDS011;9519;51.890;8.970;2022-12-29T21:50:52;14.83;;;3.33;;
18780;SDS011;9519;51.890;8.970;2022-12-29T21:56:15;17.27;;;4.17;;
18780;SDS011;9519;51.890;8.970;2022-12-29T22:01:20;30.87;;;7.37;;
18780;SDS011;9519;51.890;8.970;2022-12-29T22:06:40;18.40;;;3.90;;
18780;SDS011;9519;51.890;8.970;2022-12-29T22:11:59;15.30;;;3.07;;
18780;SDS011;9519;51.890;8.970;2022-12-29T22:17:21;23.70;;;6.50;;
18780;SDS011;9519;51.890;8.970;2022-12-29T22:22:23;12.87;;;3.93;;
18780;SDS011;9519;51.890;8.970;2022-12-29T22:27:25;22.23;;;6.40;;
18780;SDS011;9519;51.890;8.970;2022-12-29T22:32:28;23.40;;;6.13;;
18780;SDS011;9519;51.890;8.970;2022-12-29T22:37:35;19.17;;;3.97;;
18780;SDS011;9519;51.890;8.970;2022-12-29T22:42:40;27.53;;;7.53;;
18780;SDS011;9519;51.890;8.970;2022-12-29T22:47:45;19.83;;;3.27;;
18780;SDS011;9519;51.890;8.970;2022-12-29T22:52:47;15.80;;;3.83;;
18780;SDS011;9519;51.890;8.970;2022-12-29T22:57:50;19.97;;;3.90;;
18780;SDS011;9519;51.890;8.970;2022-12-29T23:02:53;17.57;;;3.83;;
18780;SDS011;9519;51.890;8.970;2022-12-29T23:07:55;15.33;;;3.97;;
18780;SDS011;9519;51.890;8.970;2022-12-29T23:12:58;14.83;;;3.30;;
18780;SDS011;9519;51.890;8.970;2022-12-29T23:18:01;14.80;;;3.47;;
18780;SDS011;9519;51.890;8.970;2022-12-29T23:23:03;20.10;;;3.73;;
18780;SDS011;9519;51.890;8.970;2022-12-29T23:28:07;14.03;;;3.50;;
18780;SDS011;9519;51.890;8.970;2022-12-29T23:33:10;19.27;;;4.10;;
18780;SDS011;9519;51.890;8.970;2022-12-29T23:38:12;21.43;;;5.43;;
18780;SDS011;9519;51.890;8.970;2022-12-29T23:43:14;13.77;;;3.73;;
18780;SDS011;9519;51.890;8.970;2022-12-29T23:48:18;18.83;;;4.80;;
18780;SDS011;9519;51.890;8.970;2022-12-29T23:53:20;22.27;;;6.13;;
18780;SDS011;9519;51.890;8.970;2022-12-29T23:58:22;10.67;;;2.73;;
